sensor_id;sensor_type;location;lat;lon;timestamp;pressure;altitude;pressure_sealevel;temperature;humidity
77124;BME280;66079;47.646;19.130;2023-03-14T00:02:02;99642.41;;;5.95;56.17
77124;BME280;66079;47.646;19.130;2023-03-14T00:05:05;99641.34;;;5.83;56.59
77124;BME280;66079;47.646;19.130;2023-03-14T00:08:08;99620.72;;;5.62;57.45
77124;BME280;66079;47.646;19.130;2023-03-14T00:11:14;99628.94;;;5.72;57.68
77124;BME280;66079;47.646;19.130;2023-03-14T00:14:16;99638.44;;;5.72;58.01
77124;BME280;66079;47.646;19.130;2023-03-14T00:17:19;99627.06;;;5.60;58.26
77124;BME280;66079;47.646;19.130;2023-03-14T00:20:22;99635.78;;;5.59;58.30
77124;BME280;66079;47.646;19.130;2023-03-14T00:23:26;99620.59;;;5.42;58.52
77124;BME280;66079;47.646;19.130;2023-03-14T00:26:28;99607.66;;;5.36;58.95
77124;BME280;66079;47.646;19.130;2023-03-14T00:29:31;99623.13;;;5.36;58.94
77124;BME280;66079;47.646;19.130;2023-03-14T00:32:35;99606.06;;;5.35;59.03
77124;BME280;66079;47.646;19.130;2023-03-14T00:35:37;99604.28;;;5.35;59.23
77124;BME280;66079;47.646;19.130;2023-03-14T00:38:41;99592.00;;;5.37;59.39
77124;BME280;66079;47.646;19.130;2023-03-14T00:41:44;99587.78;;;5.30;59.67
77124;BME280;66079;47.646;19.130;2023-03-14T00:44:46;99595.34;;;5.31;59.62
77124;BME280;66079;47.646;19.130;2023-03-14T00:47:49;99580.44;;;5.27;59.42
77124;BME280;66079;47.646;19.130;2023-03-14T00:50:52;99571.28;;;5.24;59.34
77124;BME280;66079;47.646;19.130;2023-03-14T00:53:55;99586.75;;;5.24;59.20
77124;BME280;66079;47.646;19.130;2023-03-14T00:56:58;99580.38;;;5.20;59.29
77124;BME280;66079;47.646;19.130;2023-03-14T01:00:00;99564.13;;;5.20;59.39
77124;BME280;66079;47.646;19.130;2023-03-14T01:03:06;99577.25;;;5.25;59.90
77124;BME280;66079;47.646;19.130;2023-03-14T01:06:13;99568.72;;;5.24;59.89
77124;BME280;66079;47.646;19.130;2023-03-14T01:09:17;99554.97;;;5.17;59.97
77124;BME280;66079;47.646;19.130;2023-03-14T01:12:20;99559.16;;;5.18;59.95
77124;BME280;66079;47.646;19.130;2023-03-14T01:15:22;99554.03;;;4.97;60.53
77124;BME280;66079;47.646;19.130;2023-03-14T01:18:25;99554.75;;;4.91;60.58
77124;BME280;66079;47.646;19.130;2023-03-14T01:21:30;99537.63;;;4.77;60.81
77124;BME280;66079;47.646;19.130;2023-03-14T01:24:33;99536.88;;;4.83;60.72
77124;BME280;66079;47.646;19.130;2023-03-14T01:27:36;99529.75;;;4.85;60.66
77124;BME280;66079;47.646;19.130;2023-03-14T01:30:40;99526.38;;;4.85;60.85
77124;BME280;66079;47.646;19.130;2023-03-14T01:33:43;99500.34;;;4.73;61.04
77124;BME280;66079;47.646;19.130;2023-03-14T01:36:46;99511.25;;;4.75;61.54
77124;BME280;66079;47.646;19.130;2023-03-14T01:39:48;99516.78;;;4.72;61.72
77124;BME280;66079;47.646;19.130;2023-03-14T01:42:57;99495.13;;;4.67;61.84
77124;BME280;66079;47.646;19.130;2023-03-14T01:49:27;99480.97;;;4.77;61.60
77124;BME280;66079;47.646;19.130;2023-03-14T01:52:40;99474.66;;;4.80;61.89
77124;BME280;66079;47.646;19.130;2023-03-14T01:55:45;99460.81;;;4.81;61.87
77124;BME280;66079;47.646;19.130;2023-03-14T01:58:50;99458.28;;;4.87;61.54
77124;BME280;66079;47.646;19.130;2023-03-14T02:01:54;99460.47;;;4.90;61.21
77124;BME280;66079;47.646;19.130;2023-03-14T02:04:58;99458.56;;;4.99;61.15
77124;BME280;66079;47.646;19.130;2023-03-14T02:08:11;99441.78;;;4.82;61.03
77124;BME280;66079;47.646;19.130;2023-03-14T02:11:28;99433.84;;;4.77;61.55
77124;BME280;66079;47.646;19.130;2023-03-14T02:14:39;99439.84;;;4.84;61.86
77124;BME280;66079;47.646;19.130;2023-03-14T02:17:58;99424.47;;;4.69;62.38
77124;BME280;66079;47.646;19.130;2023-03-14T02:21:38;99405.19;;;4.59;62.24
77124;BME280;66079;47.646;19.130;2023-03-14T02:28:03;99418.03;;;4.31;63.13
77124;BME280;66079;47.646;19.130;2023-03-14T02:31:09;99414.59;;;4.24;63.74
77124;BME280;66079;47.646;19.130;2023-03-14T02:34:12;99418.31;;;4.22;64.02
77124;BME280;66079;47.646;19.130;2023-03-14T02:37:16;99420.34;;;4.26;64.12
77124;BME280;66079;47.646;19.130;2023-03-14T02:40:20;99406.25;;;4.22;63.96
77124;BME280;66079;47.646;19.130;2023-03-14T02:43:25;99406.97;;;4.37;63.68
77124;BME280;66079;47.646;19.130;2023-03-14T02:46:34;99398.78;;;4.48;63.33
77124;BME280;66079;47.646;19.130;2023-03-14T02:49:36;99404.69;;;4.49;62.87
77124;BME280;66079;47.646;19.130;2023-03-14T02:52:39;99406.72;;;4.32;63.36
77124;BME280;66079;47.646;19.130;2023-03-14T02:55:46;99406.38;;;4.35;63.06
77124;BME280;66079;47.646;19.130;2023-03-14T02:58:52;99389.22;;;4.21;63.42
77124;BME280;66079;47.646;19.130;2023-03-14T03:02:14;99390.50;;;4.10;63.35
77124;BME280;66079;47.646;19.130;2023-03-14T03:05:17;99400.69;;;4.19;63.38
77124;BME280;66079;47.646;19.130;2023-03-14T03:08:21;99383.91;;;4.23;62.78
77124;BME280;66079;47.646;19.130;2023-03-14T03:11:24;99373.06;;;4.27;62.37
77124;BME280;66079;47.646;19.130;2023-03-14T03:14:27;99374.66;;;4.28;62.30
77124;BME280;66079;47.646;19.130;2023-03-14T03:17:33;99386.22;;;4.39;61.86
77124;BME280;66079;47.646;19.130;2023-03-14T03:20:37;99387.81;;;4.40;61.73
77124;BME280;66079;47.646;19.130;2023-03-14T03:23:40;99373.94;;;4.13;62.36
77124;BME280;66079;47.646;19.130;2023-03-14T03:26:42;99387.72;;;4.05;61.80
77124;BME280;66079;47.646;19.130;2023-03-14T03:29:45;99378.34;;;3.98;62.35
77124;BME280;66079;47.646;19.130;2023-03-14T03:32:48;99360.09;;;3.93;63.03
77124;BME280;66079;47.646;19.130;2023-03-14T03:35:51;99360.53;;;3.96;62.90
77124;BME280;66079;47.646;19.130;2023-03-14T03:39:01;99359.84;;;3.88;62.81
77124;BME280;66079;47.646;19.130;2023-03-14T03:42:05;99371.53;;;3.90;63.13
77124;BME280;66079;47.646;19.130;2023-03-14T03:45:08;99368.53;;;3.87;62.69
77124;BME280;66079;47.646;19.130;2023-03-14T03:48:17;99352.19;;;3.73;62.58
77124;BME280;66079;47.646;19.130;2023-03-14T03:51:20;99368.84;;;3.77;63.21
77124;BME280;66079;47.646;19.130;2023-03-14T03:54:24;99356.44;;;3.66;62.66
77124;BME280;66079;47.646;19.130;2023-03-14T03:57:27;99335.81;;;3.60;62.81
77124;BME280;66079;47.646;19.130;2023-03-14T04:00:31;99321.78;;;3.56;63.48
77124;BME280;66079;47.646;19.130;2023-03-14T04:03:35;99352.84;;;3.61;63.59
77124;BME280;66079;47.646;19.130;2023-03-14T04:06:41;99351.91;;;3.47;63.81
77124;BME280;66079;47.646;19.130;2023-03-14T04:09:44;99352.09;;;3.46;63.91
77124;BME280;66079;47.646;19.130;2023-03-14T04:12:58;99342.81;;;3.45;63.69
77124;BME280;66079;47.646;19.130;2023-03-14T04:16:08;99340.22;;;3.45;63.72
77124;BME280;66079;47.646;19.130;2023-03-14T04:19:12;99318.03;;;3.23;63.79
77124;BME280;66079;47.646;19.130;2023-03-14T04:22:15;99335.97;;;3.37;63.79
77124;BME280;66079;47.646;19.130;2023-03-14T04:25:22;99319.50;;;3.32;63.57
77124;BME280;66079;47.646;19.130;2023-03-14T04:28:30;99337.59;;;3.24;63.71
77124;BME280;66079;47.646;19.130;2023-03-14T04:31:33;99320.53;;;3.16;63.35
77124;BME280;66079;47.646;19.130;2023-03-14T04:34:36;99320.72;;;3.15;63.68
77124;BME280;66079;47.646;19.130;2023-03-14T04:37:39;99300.97;;;3.01;64.21
77124;BME280;66079;47.646;19.130;2023-03-14T04:40:44;99307.72;;;3.02;64.48
77124;BME280;66079;47.646;19.130;2023-03-14T04:43:48;99312.31;;;3.06;64.04
77124;BME280;66079;47.646;19.130;2023-03-14T04:46:51;99327.88;;;3.05;64.07
77124;BME280;66079;47.646;19.130;2023-03-14T04:49:54;99329.47;;;3.06;63.81
77124;BME280;66079;47.646;19.130;2023-03-14T04:52:58;99322.66;;;3.13;63.89
77124;BME280;66079;47.646;19.130;2023-03-14T04:56:02;99331.06;;;3.21;64.00
77124;BME280;66079;47.646;19.130;2023-03-14T04:59:11;99336.25;;;3.28;63.79
77124;BME280;66079;47.646;19.130;2023-03-14T05:02:16;99333.34;;;3.31;63.87
77124;BME280;66079;47.646;19.130;2023-03-14T05:05:47;99344.13;;;3.41;63.56
77124;BME280;66079;47.646;19.130;2023-03-14T05:09:11;99328.41;;;3.50;63.02
77124;BME280;66079;47.646;19.130;2023-03-14T05:12:14;99317.31;;;3.64;62.73
77124;BME280;66079;47.646;19.130;2023-03-14T05:15:42;99296.31;;;3.61;63.03
77124;BME280;66079;47.646;19.130;2023-03-14T05:19:05;99290.88;;;3.70;62.69
77124;BME280;66079;47.646;19.130;2023-03-14T05:22:19;99307.81;;;3.86;62.47
77124;BME280;66079;47.646;19.130;2023-03-14T05:25:22;99302.38;;;3.95;62.42
77124;BME280;66079;47.646;19.130;2023-03-14T05:28:42;99307.44;;;4.10;62.38
77124;BME280;66079;47.646;19.130;2023-03-14T05:31:58;99291.88;;;4.18;61.69
77124;BME280;66079;47.646;19.130;2023-03-14T05:35:20;99303.69;;;4.40;61.28
77124;BME280;66079;47.646;19.130;2023-03-14T05:38:38;99294.72;;;4.57;60.74
77124;BME280;66079;47.646;19.130;2023-03-14T05:41:58;99274.56;;;4.61;60.49
77124;BME280;66079;47.646;19.130;2023-03-14T05:45:12;99293.31;;;4.89;60.05
77124;BME280;66079;47.646;19.130;2023-03-14T05:48:36;99290.03;;;5.14;59.68
77124;BME280;66079;47.646;19.130;2023-03-14T05:51:49;99279.03;;;5.33;59.43
77124;BME280;66079;47.646;19.130;2023-03-14T05:55:20;99280.47;;;5.62;58.71
77124;BME280;66079;47.646;19.130;2023-03-14T05:58:48;99279.34;;;5.84;58.41
77124;BME280;66079;47.646;19.130;2023-03-14T06:02:00;99279.75;;;6.01;57.80
77124;BME280;66079;47.646;19.130;2023-03-14T06:05:11;99288.44;;;6.32;57.22
77124;BME280;66079;47.646;19.130;2023-03-14T06:08:14;99282.28;;;6.53;56.91
77124;BME280;66079;47.646;19.130;2023-03-14T06:11:20;99297.91;;;6.84;56.41
77124;BME280;66079;47.646;19.130;2023-03-14T06:14:23;99281.91;;;7.07;55.72
77124;BME280;66079;47.646;19.130;2023-03-14T06:17:27;99288.94;;;7.37;55.62
77124;BME280;66079;47.646;19.130;2023-03-14T06:20:46;99274.28;;;7.62;54.67
77124;BME280;66079;47.646;19.130;2023-03-14T06:23:56;99280.66;;;7.91;54.56
77124;BME280;66079;47.646;19.130;2023-03-14T06:27:01;99281.91;;;8.06;54.34
77124;BME280;66079;47.646;19.130;2023-03-14T06:30:06;99266.00;;;8.03;54.84
77124;BME280;66079;47.646;19.130;2023-03-14T06:33:11;99294.88;;;8.31;54.98
77124;BME280;66079;47.646;19.130;2023-03-14T06:36:15;99287.47;;;8.35;54.92
77124;BME280;66079;47.646;19.130;2023-03-14T06:39:21;99289.72;;;8.49;54.59
77124;BME280;66079;47.646;19.130;2023-03-14T06:42:34;99295.16;;;8.66;54.14
77124;BME280;66079;47.646;19.130;2023-03-14T06:45:38;99304.94;;;8.82;54.05
77124;BME280;66079;47.646;19.130;2023-03-14T06:48:41;99302.34;;;9.00;53.77
77124;BME280;66079;47.646;19.130;2023-03-14T06:51:43;99294.16;;;9.03;53.56
77124;BME280;66079;47.646;19.130;2023-03-14T06:54:48;99295.44;;;9.12;53.38
77124;BME280;66079;47.646;19.130;2023-03-14T06:57:55;99279.34;;;9.21;53.00
77124;BME280;66079;47.646;19.130;2023-03-14T07:00:59;99288.47;;;9.42;52.18
77124;BME280;66079;47.646;19.130;2023-03-14T07:04:09;99296.94;;;9.49;51.93
77124;BME280;66079;47.646;19.130;2023-03-14T07:07:15;99282.88;;;9.57;51.89
77124;BME280;66079;47.646;19.130;2023-03-14T07:10:21;99288.94;;;9.80;51.21
77124;BME280;66079;47.646;19.130;2023-03-14T07:13:25;99295.75;;;10.04;50.51
77124;BME280;66079;47.646;19.130;2023-03-14T07:16:35;99295.00;;;10.27;50.45
77124;BME280;66079;47.646;19.130;2023-03-14T07:19:39;99292.41;;;10.27;50.04
77124;BME280;66079;47.646;19.130;2023-03-14T07:22:43;99294.09;;;10.56;48.42
77124;BME280;66079;47.646;19.130;2023-03-14T07:25:46;99300.31;;;10.66;47.15
77124;BME280;66079;47.646;19.130;2023-03-14T07:28:50;99294.19;;;10.72;46.88
77124;BME280;66079;47.646;19.130;2023-03-14T07:31:54;99298.38;;;10.85;46.42
77124;BME280;66079;47.646;19.130;2023-03-14T07:34:57;99295.53;;;10.87;46.28
77124;BME280;66079;47.646;19.130;2023-03-14T07:38:00;99289.25;;;11.11;46.06
77124;BME280;66079;47.646;19.130;2023-03-14T07:41:10;99269.34;;;11.16;45.64
77124;BME280;66079;47.646;19.130;2023-03-14T07:44:21;99265.78;;;11.34;45.25
77124;BME280;66079;47.646;19.130;2023-03-14T07:47:23;99245.31;;;11.54;44.32
77124;BME280;66079;47.646;19.130;2023-03-14T07:50:26;99259.41;;;11.86;43.81
77124;BME280;66079;47.646;19.130;2023-03-14T07:53:29;99261.31;;;12.07;43.54
77124;BME280;66079;47.646;19.130;2023-03-14T07:56:31;99255.44;;;12.33;42.90
77124;BME280;66079;47.646;19.130;2023-03-14T07:59:34;99260.00;;;12.59;42.50
77124;BME280;66079;47.646;19.130;2023-03-14T08:02:36;99245.25;;;12.70;42.30
77124;BME280;66079;47.646;19.130;2023-03-14T08:05:39;99259.47;;;13.00;42.06
77124;BME280;66079;47.646;19.130;2023-03-14T08:08:43;99243.63;;;12.85;42.30
77124;BME280;66079;47.646;19.130;2023-03-14T08:11:46;99244.28;;;12.97;42.17
77124;BME280;66079;47.646;19.130;2023-03-14T08:14:49;99236.94;;;13.16;41.87
77124;BME280;66079;47.646;19.130;2023-03-14T08:17:51;99237.47;;;13.40;41.58
77124;BME280;66079;47.646;19.130;2023-03-14T08:20:56;99218.38;;;13.39;41.29
77124;BME280;66079;47.646;19.130;2023-03-14T08:24:00;99214.31;;;13.53;41.10
77124;BME280;66079;47.646;19.130;2023-03-14T08:27:03;99221.78;;;13.40;41.41
77124;BME280;66079;47.646;19.130;2023-03-14T08:30:10;99219.56;;;13.53;41.44
77124;BME280;66079;47.646;19.130;2023-03-14T08:33:15;99218.50;;;13.81;40.94
77124;BME280;66079;47.646;19.130;2023-03-14T08:36:18;99217.63;;;13.70;41.18
77124;BME280;66079;47.646;19.130;2023-03-14T08:39:24;99214.34;;;13.85;40.77
77124;BME280;66079;47.646;19.130;2023-03-14T08:42:27;99198.69;;;13.90;41.10
77124;BME280;66079;47.646;19.130;2023-03-14T08:45:30;99211.78;;;13.95;40.75
77124;BME280;66079;47.646;19.130;2023-03-14T08:48:33;99202.28;;;13.79;41.06
77124;BME280;66079;47.646;19.130;2023-03-14T08:51:35;99195.31;;;13.94;41.06
77124;BME280;66079;47.646;19.130;2023-03-14T08:54:38;99193.63;;;14.15;40.76
77124;BME280;66079;47.646;19.130;2023-03-14T08:57:40;99175.78;;;14.48;40.07
77124;BME280;66079;47.646;19.130;2023-03-14T09:00:43;99182.09;;;14.52;40.13
77124;BME280;66079;47.646;19.130;2023-03-14T09:03:46;99157.56;;;14.68;39.93
77124;BME280;66079;47.646;19.130;2023-03-14T09:06:50;99157.41;;;15.10;39.20
77124;BME280;66079;47.646;19.130;2023-03-14T09:09:53;99153.75;;;15.21;38.94
77124;BME280;66079;47.646;19.130;2023-03-14T09:12:55;99161.34;;;15.28;38.95
77124;BME280;66079;47.646;19.130;2023-03-14T09:15:59;99150.88;;;15.28;38.76
77124;BME280;66079;47.646;19.130;2023-03-14T09:19:02;99143.34;;;15.51;38.66
77124;BME280;66079;47.646;19.130;2023-03-14T09:22:04;99129.44;;;15.56;38.30
77124;BME280;66079;47.646;19.130;2023-03-14T09:25:07;99123.38;;;15.75;37.99
77124;BME280;66079;47.646;19.130;2023-03-14T09:28:10;99114.16;;;16.03;37.55
77124;BME280;66079;47.646;19.130;2023-03-14T09:31:13;99108.56;;;16.25;37.53
77124;BME280;66079;47.646;19.130;2023-03-14T09:34:16;99112.72;;;16.36;37.40
77124;BME280;66079;47.646;19.130;2023-03-14T09:37:19;99105.88;;;16.45;37.25
77124;BME280;66079;47.646;19.130;2023-03-14T09:40:24;99111.34;;;16.58;36.60
77124;BME280;66079;47.646;19.130;2023-03-14T09:43:30;99124.78;;;16.47;36.96
77124;BME280;66079;47.646;19.130;2023-03-14T09:46:36;99113.69;;;16.65;36.17
77124;BME280;66079;47.646;19.130;2023-03-14T09:49:40;99080.81;;;16.72;36.09
77124;BME280;66079;47.646;19.130;2023-03-14T09:52:48;99075.31;;;16.69;36.55
77124;BME280;66079;47.646;19.130;2023-03-14T09:55:52;99046.91;;;16.81;35.95
77124;BME280;66079;47.646;19.130;2023-03-14T09:59:02;99060.84;;;17.10;35.55
77124;BME280;66079;47.646;19.130;2023-03-14T10:02:23;99066.88;;;16.77;35.89
77124;BME280;66079;47.646;19.130;2023-03-14T10:05:26;99056.13;;;17.12;35.26
77124;BME280;66079;47.646;19.130;2023-03-14T10:08:31;99049.69;;;17.80;34.24
77124;BME280;66079;47.646;19.130;2023-03-14T10:11:34;99057.56;;;18.27;33.43
77124;BME280;66079;47.646;19.130;2023-03-14T10:14:45;99048.25;;;18.91;32.20
77124;BME280;66079;47.646;19.130;2023-03-14T10:17:50;99033.81;;;19.79;30.97
77124;BME280;66079;47.646;19.130;2023-03-14T10:21:06;99052.94;;;20.39;30.15
77124;BME280;66079;47.646;19.130;2023-03-14T10:24:18;99030.13;;;20.43;30.24
77124;BME280;66079;47.646;19.130;2023-03-14T10:27:28;99040.72;;;22.18;27.55
77124;BME280;66079;47.646;19.130;2023-03-14T10:34:01;99020.25;;;20.93;29.39
77124;BME280;66079;47.646;19.130;2023-03-14T10:37:23;99018.84;;;20.29;30.52
77124;BME280;66079;47.646;19.130;2023-03-14T10:40:31;99019.22;;;20.09;30.68
77124;BME280;66079;47.646;19.130;2023-03-14T10:43:35;99006.91;;;20.18;31.09
77124;BME280;66079;47.646;19.130;2023-03-14T10:46:38;98989.88;;;20.60;30.49
77124;BME280;66079;47.646;19.130;2023-03-14T10:50:24;98987.81;;;20.35;30.26
77124;BME280;66079;47.646;19.130;2023-03-14T10:53:33;98960.03;;;21.03;29.37
77124;BME280;66079;47.646;19.130;2023-03-14T10:56:37;98962.94;;;21.24;29.48
77124;BME280;66079;47.646;19.130;2023-03-14T10:59:42;98955.31;;;20.70;29.79
77124;BME280;66079;47.646;19.130;2023-03-14T11:03:08;98960.66;;;21.31;28.63
77124;BME280;66079;47.646;19.130;2023-03-14T11:15:53;98933.16;;;22.39;27.28
77124;BME280;66079;47.646;19.130;2023-03-14T11:19:11;98926.72;;;22.75;26.67
77124;BME280;66079;47.646;19.130;2023-03-14T11:22:41;98925.50;;;22.47;26.79
77124;BME280;66079;47.646;19.130;2023-03-14T11:29:21;98910.28;;;22.26;26.65
77124;BME280;66079;47.646;19.130;2023-03-14T11:32:39;98885.81;;;22.93;26.07
77124;BME280;66079;47.646;19.130;2023-03-14T11:35:51;98894.94;;;23.50;25.11
77124;BME280;66079;47.646;19.130;2023-03-14T11:38:58;98883.88;;;22.73;26.44
77124;BME280;66079;47.646;19.130;2023-03-14T11:42:02;98878.72;;;21.31;28.14
77124;BME280;66079;47.646;19.130;2023-03-14T11:45:16;98894.28;;;21.41;28.35
77124;BME280;66079;47.646;19.130;2023-03-14T11:51:51;98876.28;;;20.51;30.24
77124;BME280;66079;47.646;19.130;2023-03-14T11:58:05;98869.06;;;19.99;31.19
77124;BME280;66079;47.646;19.130;2023-03-14T12:01:13;98873.63;;;19.85;31.03
77124;BME280;66079;47.646;19.130;2023-03-14T12:04:34;98851.31;;;19.91;31.13
77124;BME280;66079;47.646;19.130;2023-03-14T12:14:34;98854.09;;;19.86;31.66
77124;BME280;66079;47.646;19.130;2023-03-14T12:17:41;98856.22;;;19.84;31.53
77124;BME280;66079;47.646;19.130;2023-03-14T12:20:55;98849.06;;;19.62;32.28
77124;BME280;66079;47.646;19.130;2023-03-14T12:23:58;98849.09;;;19.49;32.45
77124;BME280;66079;47.646;19.130;2023-03-14T12:27:02;98879.47;;;19.19;32.67
77124;BME280;66079;47.646;19.130;2023-03-14T12:33:27;98829.22;;;18.75;34.38
77124;BME280;66079;47.646;19.130;2023-03-14T12:43:03;98811.66;;;19.11;32.37
77124;BME280;66079;47.646;19.130;2023-03-14T12:46:21;98815.34;;;19.10;32.50
77124;BME280;66079;47.646;19.130;2023-03-14T12:49:35;98819.06;;;19.09;32.38
77124;BME280;66079;47.646;19.130;2023-03-14T12:59:46;98806.97;;;18.95;32.07
77124;BME280;66079;47.646;19.130;2023-03-14T13:02:50;98800.63;;;18.82;32.10
77124;BME280;66079;47.646;19.130;2023-03-14T13:05:57;98805.03;;;18.73;32.70
77124;BME280;66079;47.646;19.130;2023-03-14T13:12:57;98789.81;;;18.70;31.79
77124;BME280;66079;47.646;19.130;2023-03-14T13:16:00;98789.53;;;18.72;32.05
77124;BME280;66079;47.646;19.130;2023-03-14T13:19:16;98800.16;;;18.67;32.10
77124;BME280;66079;47.646;19.130;2023-03-14T13:22:27;98786.66;;;18.54;32.64
77124;BME280;66079;47.646;19.130;2023-03-14T13:25:32;98801.88;;;18.58;32.75
77124;BME280;66079;47.646;19.130;2023-03-14T13:28:36;98793.69;;;18.45;33.25
77124;BME280;66079;47.646;19.130;2023-03-14T13:31:43;98805.19;;;18.49;33.33
77124;BME280;66079;47.646;19.130;2023-03-14T13:34:47;98807.47;;;18.37;34.67
77124;BME280;66079;47.646;19.130;2023-03-14T13:38:01;98819.72;;;18.28;35.11
77124;BME280;66079;47.646;19.130;2023-03-14T13:41:13;98816.31;;;18.28;36.57
77124;BME280;66079;47.646;19.130;2023-03-14T13:44:22;98813.66;;;18.14;36.90
77124;BME280;66079;47.646;19.130;2023-03-14T13:47:26;98810.75;;;18.16;37.29
77124;BME280;66079;47.646;19.130;2023-03-14T13:50:31;98816.28;;;18.14;38.00
77124;BME280;66079;47.646;19.130;2023-03-14T13:53:45;98804.28;;;18.08;37.06
77124;BME280;66079;47.646;19.130;2023-03-14T13:56:59;98808.72;;;18.26;36.25
77124;BME280;66079;47.646;19.130;2023-03-14T14:00:16;98812.13;;;18.45;35.65
77124;BME280;66079;47.646;19.130;2023-03-14T14:03:22;98823.44;;;18.60;35.59
77124;BME280;66079;47.646;19.130;2023-03-14T14:06:33;98809.63;;;18.95;33.75
77124;BME280;66079;47.646;19.130;2023-03-14T14:09:39;98803.44;;;18.72;33.29
77124;BME280;66079;47.646;19.130;2023-03-14T14:12:57;98805.69;;;18.65;33.65
77124;BME280;66079;47.646;19.130;2023-03-14T14:16:02;98806.47;;;18.52;33.82
77124;BME280;66079;47.646;19.130;2023-03-14T14:19:06;98808.13;;;18.62;34.03
77124;BME280;66079;47.646;19.130;2023-03-14T14:22:10;98804.59;;;18.52;34.30
77124;BME280;66079;47.646;19.130;2023-03-14T14:25:14;98806.38;;;18.57;33.91
77124;BME280;66079;47.646;19.130;2023-03-14T14:28:31;98786.66;;;18.54;32.56
77124;BME280;66079;47.646;19.130;2023-03-14T14:31:35;98798.47;;;18.57;32.96
77124;BME280;66079;47.646;19.130;2023-03-14T14:34:42;98792.81;;;18.50;33.24
77124;BME280;66079;47.646;19.130;2023-03-14T14:37:52;98783.94;;;18.46;32.52
77124;BME280;66079;47.646;19.130;2023-03-14T14:40:59;98798.88;;;18.50;32.54
77124;BME280;66079;47.646;19.130;2023-03-14T14:44:04;98793.31;;;18.52;32.57
77124;BME280;66079;47.646;19.130;2023-03-14T14:47:07;98797.88;;;18.46;32.48
77124;BME280;66079;47.646;19.130;2023-03-14T14:50:31;98792.47;;;18.38;32.68
77124;BME280;66079;47.646;19.130;2023-03-14T14:53:39;98793.84;;;18.35;33.10
77124;BME280;66079;47.646;19.130;2023-03-14T14:56:50;98782.91;;;18.28;33.45
77124;BME280;66079;47.646;19.130;2023-03-14T14:59:56;98788.25;;;18.23;33.05
77124;BME280;66079;47.646;19.130;2023-03-14T15:02:59;98783.78;;;18.24;33.75
77124;BME280;66079;47.646;19.130;2023-03-14T15:06:03;98784.41;;;18.02;34.28
77124;BME280;66079;47.646;19.130;2023-03-14T15:09:08;98783.69;;;17.97;34.52
77124;BME280;66079;47.646;19.130;2023-03-14T15:12:11;98791.94;;;17.90;34.70
77124;BME280;66079;47.646;19.130;2023-03-14T15:15:14;98782.94;;;17.78;35.19
77124;BME280;66079;47.646;19.130;2023-03-14T15:18:18;98784.34;;;17.70;35.26
77124;BME280;66079;47.646;19.130;2023-03-14T15:21:22;98803.03;;;17.69;35.80
77124;BME280;66079;47.646;19.130;2023-03-14T15:24:24;98799.72;;;17.63;36.55
77124;BME280;66079;47.646;19.130;2023-03-14T15:27:28;98809.72;;;17.61;37.17
77124;BME280;66079;47.646;19.130;2023-03-14T15:30:32;98822.16;;;17.56;37.61
77124;BME280;66079;47.646;19.130;2023-03-14T15:33:35;98821.31;;;17.60;36.81
77124;BME280;66079;47.646;19.130;2023-03-14T15:36:38;98838.34;;;17.63;37.56
77124;BME280;66079;47.646;19.130;2023-03-14T15:39:41;98810.44;;;17.48;39.73
77124;BME280;66079;47.646;19.130;2023-03-14T15:42:44;98852.41;;;17.29;39.82
77124;BME280;66079;47.646;19.130;2023-03-14T15:45:47;98885.84;;;17.24;42.90
77124;BME280;66079;47.646;19.130;2023-03-14T15:48:51;98866.94;;;16.46;47.64
77124;BME280;66079;47.646;19.130;2023-03-14T15:51:53;98892.41;;;16.02;51.58
77124;BME280;66079;47.646;19.130;2023-03-14T15:54:59;98876.44;;;15.55;53.73
77124;BME280;66079;47.646;19.130;2023-03-14T15:58:02;98895.34;;;15.37;55.32
77124;BME280;66079;47.646;19.130;2023-03-14T16:01:06;98892.53;;;15.08;56.76
77124;BME280;66079;47.646;19.130;2023-03-14T16:04:11;98906.72;;;14.87;58.27
77124;BME280;66079;47.646;19.130;2023-03-14T16:07:13;98902.84;;;14.64;58.97
77124;BME280;66079;47.646;19.130;2023-03-14T16:10:18;98915.38;;;14.62;59.96
77124;BME280;66079;47.646;19.130;2023-03-14T16:13:21;98918.78;;;14.43;61.74
77124;BME280;66079;47.646;19.130;2023-03-14T16:16:23;98918.19;;;14.21;63.23
77124;BME280;66079;47.646;19.130;2023-03-14T16:19:26;98923.41;;;14.06;63.70
77124;BME280;66079;47.646;19.130;2023-03-14T16:22:29;98916.63;;;14.05;63.89
77124;BME280;66079;47.646;19.130;2023-03-14T16:25:36;98898.81;;;13.87;64.34
77124;BME280;66079;47.646;19.130;2023-03-14T16:28:40;98919.72;;;13.97;64.05
77124;BME280;66079;47.646;19.130;2023-03-14T16:31:42;98891.78;;;13.87;63.82
77124;BME280;66079;47.646;19.130;2023-03-14T16:34:46;98900.38;;;13.93;63.56
77124;BME280;66079;47.646;19.130;2023-03-14T16:37:48;98915.53;;;13.96;64.03
77124;BME280;66079;47.646;19.130;2023-03-14T16:41:02;98903.75;;;13.83;64.00
77124;BME280;66079;47.646;19.130;2023-03-14T16:44:05;98908.72;;;13.80;64.13
77124;BME280;66079;47.646;19.130;2023-03-14T16:47:08;98908.94;;;13.73;64.63
77124;BME280;66079;47.646;19.130;2023-03-14T16:50:12;98922.00;;;13.68;65.03
77124;BME280;66079;47.646;19.130;2023-03-14T16:53:16;98926.44;;;13.63;65.02
77124;BME280;66079;47.646;19.130;2023-03-14T16:56:19;98934.00;;;13.64;64.63
77124;BME280;66079;47.646;19.130;2023-03-14T16:59:22;98955.66;;;13.65;65.26
77124;BME280;66079;47.646;19.130;2023-03-14T17:02:27;98951.94;;;13.46;65.87
77124;BME280;66079;47.646;19.130;2023-03-14T17:05:30;98968.66;;;13.45;66.06
77124;BME280;66079;47.646;19.130;2023-03-14T17:08:32;98986.38;;;13.43;65.84
77124;BME280;66079;47.646;19.130;2023-03-14T17:11:35;99001.47;;;13.35;66.01
77124;BME280;66079;47.646;19.130;2023-03-14T17:14:38;99002.25;;;13.36;66.24
77124;BME280;66079;47.646;19.130;2023-03-14T17:17:40;98992.00;;;13.24;67.25
77124;BME280;66079;47.646;19.130;2023-03-14T17:20:43;98978.91;;;13.14;67.83